Time;durP1;ratioP1;P1;durP2;ratioP2;P2;SDS_P1;SDS_P2;PMS_P1;PMS_P2;Temp;Humidity;BMP_temperature;BMP_pressure;BME280_temperature;BME280_humidity;BME280_pressure;Samples;Min_cycle;Max_cycle;Signal;HPM_P1;HPM_P2
2021/08/22 05:01:05;;;;;;;4.60;4.20;;;;;;;23.65;54.02;95073.53;5644381;23;20495;-78
2021/08/22 05:03:30;;;;;;;5.07;4.57;;;;;;;23.91;52.68;95078.84;4978019;28;20038;-78
2021/08/22 05:05:56;;;;;;;5.00;4.50;;;;;;;23.26;53.19;95068.31;4953031;28;20035;-78
2021/08/22 05:08:21;;;;;;;11.63;4.95;;;;;;;24.73;50.60;95069.72;4935410;28;20030;-77
2021/08/22 05:10:48;;;;;;;5.55;5.15;;;;;;;25.57;48.87;95076.56;4952946;28;20415;-78
2021/08/22 05:13:14;;;;;;;5.88;4.50;;;;;;;26.50;47.11;95079.88;4951583;28;20039;-79
2021/08/22 05:15:41;;;;;;;5.75;4.80;;;;;;;26.20;46.96;95078.03;4942367;28;20427;-79
2021/08/22 05:18:06;;;;;;;4.80;4.28;;;;;;;27.15;45.49;95083.53;4971812;28;20052;-79
2021/08/22 05:20:32;;;;;;;6.25;4.90;;;;;;;27.81;44.18;95093.91;4971132;28;20482;-78
2021/08/22 05:22:57;;;;;;;7.28;4.93;;;;;;;27.87;44.20;95095.50;4989166;28;20106;-78
2021/08/22 05:25:23;;;;;;;6.13;5.13;;;;;;;28.01;42.07;95085.81;4988415;28;20476;-80
2021/08/22 05:27:48;;;;;;;4.82;4.43;;;;;;;28.72;40.79;95084.28;4939708;28;20034;-77
2021/08/22 05:30:14;;;;;;;4.47;4.18;;;;;;;28.95;41.50;95085.38;4953842;28;20034;-78
2021/08/22 05:32:39;;;;;;;4.07;3.78;;;;;;;29.07;41.15;95082.31;4956042;28;20524;-78
2021/08/22 05:35:05;;;;;;;4.72;4.25;;;;;;;29.75;39.72;95083.69;4988035;28;20033;-78
2021/08/22 05:37:31;;;;;;;5.20;4.80;;;;;;;29.59;39.36;95086.81;4988695;28;20109;-77
2021/08/22 05:39:56;;;;;;;4.95;4.45;;;;;;;30.34;38.16;95095.72;4971385;28;20038;-77
2021/08/22 05:42:22;;;;;;;4.80;4.40;;;;;;;30.22;37.70;95088.13;4971035;28;20022;-79
2021/08/22 05:44:47;;;;;;;4.97;4.47;;;;;;;30.26;37.77;95091.00;4988569;28;20026;-78
2021/08/22 05:47:18;;;;;;;4.80;4.40;;;;;;;30.69;36.77;95079.13;4987741;28;20023;-78
2021/08/22 05:49:44;;;;;;;7.28;4.57;;;;;;;30.85;37.12;95087.66;4989349;28;20030;-78
2021/08/22 05:52:09;;;;;;;5.18;4.07;;;;;;;31.82;35.20;95088.22;4953893;28;20080;-77
2021/08/22 05:54:36;;;;;;;4.97;4.47;;;;;;;31.55;36.00;95088.28;4971757;28;20491;-75
2021/08/22 05:57:02;;;;;;;4.88;4.40;;;;;;;30.75;37.70;95088.63;4988338;28;20474;-76
2021/08/22 05:59:27;;;;;;;4.82;4.53;;;;;;;31.85;35.88;95094.88;4948885;28;20050;-78
2021/08/22 06:01:53;;;;;;;7.70;5.15;;;;;;;29.29;39.10;95098.66;4948034;28;20043;-80
2021/08/22 06:04:18;;;;;;;11.00;5.13;;;;;;;26.39;44.42;95093.47;4914562;29;20027;-77
2021/08/22 06:06:45;;;;;;;4.70;4.38;;;;;;;27.31;44.35;95101.03;4949880;28;20516;-77
2021/08/22 06:09:11;;;;;;;5.82;4.55;;;;;;;27.62;43.69;95096.41;4947728;28;20433;-77
2021/08/22 06:11:36;;;;;;;5.00;4.53;;;;;;;27.91;42.68;95093.88;4948055;29;20032;-78
2021/08/22 06:14:02;;;;;;;4.93;4.50;;;;;;;27.54;43.75;95097.00;4948053;28;20030;-77
2021/08/22 06:16:27;;;;;;;4.65;4.22;;;;;;;28.74;41.40;95097.31;4915523;29;20102;-76
2021/08/22 06:18:53;;;;;;;5.32;4.45;;;;;;;30.41;37.93;95098.81;4949401;28;20038;-76
2021/08/22 06:21:18;;;;;;;4.50;4.05;;;;;;;33.75;32.74;95092.34;4946745;29;20039;-75
2021/08/22 06:23:44;;;;;;;4.90;4.03;;;;;;;33.20;33.48;95097.38;4932249;29;20050;-76
2021/08/22 06:26:09;;;;;;;5.45;4.70;;;;;;;33.08;33.17;95091.72;4912822;29;20024;-79
2021/08/22 06:28:35;;;;;;;4.25;3.95;;;;;;;34.04;32.46;95089.84;4927543;29;20019;-77
2021/08/22 06:31:00;;;;;;;8.20;4.72;;;;;;;34.11;31.25;95089.41;4944398;29;20043;-78
2021/08/22 06:33:25;;;;;;;4.93;4.55;;;;;;;33.38;32.06;95083.69;4946561;29;20035;-77
2021/08/22 06:35:51;;;;;;;5.10;4.60;;;;;;;30.15;36.97;95076.97;4915981;29;20027;-77
2021/08/22 06:38:16;;;;;;;6.28;4.72;;;;;;;29.99;36.72;95074.84;4946493;29;20050;-78
2021/08/22 06:40:42;;;;;;;6.82;4.72;;;;;;;29.42;39.05;95083.81;4932885;29;20031;-78
2021/08/22 06:43:07;;;;;;;5.03;4.63;;;;;;;28.23;41.17;95086.22;4930931;29;20098;-77
2021/08/22 06:45:33;;;;;;;7.68;3.72;;;;;;;28.74;41.52;95079.44;4948569;29;20448;-76
2021/08/22 06:47:58;;;;;;;6.40;4.25;;;;;;;28.64;41.08;95076.06;4944779;29;20121;-77
2021/08/22 06:50:24;;;;;;;4.65;4.30;;;;;;;28.99;40.17;95083.75;4930801;29;20032;-76
2021/08/22 06:52:49;;;;;;;4.57;4.28;;;;;;;28.63;41.65;95082.47;4946433;28;20034;-77
2021/08/22 06:55:15;;;;;;;5.07;4.40;;;;;;;29.19;40.21;95085.38;4930563;29;20074;-78
2021/08/22 06:57:40;;;;;;;5.20;4.70;;;;;;;28.82;39.39;95079.91;4930945;29;20042;-76
2021/08/22 07:00:07;;;;;;;5.00;4.00;;;;;;;29.04;40.14;95085.56;4957438;28;20062;-76
2021/08/22 07:02:32;;;;;;;6.55;4.43;;;;;;;29.12;38.89;95085.72;4947672;29;20047;-77
2021/08/22 07:04:58;;;;;;;4.93;4.03;;;;;;;29.62;38.02;95086.25;4947505;28;20102;-78
2021/08/22 07:07:23;;;;;;;4.97;4.45;;;;;;;29.52;39.51;95091.72;4948351;29;20066;-78
2021/08/22 07:09:48;;;;;;;5.65;4.38;;;;;;;30.26;37.37;95082.97;4911647;29;20024;-76
2021/08/22 07:12:14;;;;;;;4.97;4.57;;;;;;;26.77;42.89;95084.94;4930940;29;20023;-79
2021/08/22 07:14:40;;;;;;;6.50;4.93;;;;;;;29.29;40.19;95093.31;4930178;29;20027;-76
2021/08/22 07:17:06;;;;;;;6.78;6.25;;;;;;;29.40;39.20;95089.47;4946708;29;20424;-77
2021/08/22 07:19:31;;;;;;;5.60;5.10;;;;;;;28.84;40.74;95096.41;4946771;29;20090;-77
2021/08/22 07:21:57;;;;;;;6.95;6.20;;;;;;;28.15;41.20;95090.31;4945938;28;20472;-79
2021/08/22 07:24:22;;;;;;;8.82;5.30;;;;;;;27.07;43.19;95094.72;4950079;29;20109;-79
2021/08/22 07:26:48;;;;;;;8.90;4.75;;;;;;;28.31;42.07;95093.66;4946926;29;20110;-76
2021/08/22 07:29:14;;;;;;;5.63;5.18;;;;;;;29.03;39.81;95089.28;4940544;29;20581;-78
2021/08/22 07:31:39;;;;;;;8.88;4.88;;;;;;;25.38;45.46;95088.66;4950016;29;20023;-80
2021/08/22 07:34:04;;;;;;;6.95;4.93;;;;;;;27.71;43.68;95082.25;4952876;28;20074;-80
2021/08/22 07:36:30;;;;;;;4.95;4.55;;;;;;;28.33;42.34;95086.16;4959595;28;20042;-77
2021/08/22 07:38:55;;;;;;;5.53;5.07;;;;;;;28.63;41.51;95083.25;4953448;28;20027;-76
2021/08/22 07:41:21;;;;;;;7.00;5.03;;;;;;;28.64;41.00;95081.41;4930910;28;20697;-78
2021/08/22 07:43:46;;;;;;;5.63;4.35;;;;;;;28.50;40.52;95083.09;4949670;29;20652;-77
2021/08/22 07:46:12;;;;;;;5.40;4.90;;;;;;;28.53;40.69;95070.00;4935056;29;20043;-79
2021/08/22 07:48:37;;;;;;;7.55;4.63;;;;;;;28.76;41.31;95077.31;4949196;29;20031;-79
2021/08/22 07:51:02;;;;;;;3.80;3.55;;;;;;;28.68;40.14;95083.22;4951172;29;20031;-77
2021/08/22 07:53:28;;;;;;;4.28;3.80;;;;;;;28.91;39.59;95080.88;4933600;29;20465;-78
2021/08/22 07:55:54;;;;;;;4.93;4.53;;;;;;;28.03;40.44;95076.47;4948581;29;20027;-78
2021/08/22 07:58:20;;;;;;;4.35;3.97;;;;;;;28.58;40.31;95082.47;4949344;29;20532;-79
2021/08/22 08:00:45;;;;;;;4.65;4.20;;;;;;;28.23;41.50;95080.91;4953832;28;20038;-80
2021/08/22 08:03:12;;;;;;;5.75;4.20;;;;;;;28.51;40.82;95082.81;4953096;28;20035;-80
2021/08/22 08:05:38;;;;;;;3.92;3.63;;;;;;;28.45;40.58;95075.94;4944164;28;20198;-80
2021/08/22 08:08:04;;;;;;;7.05;3.75;;;;;;;28.97;40.21;95082.41;4953329;28;20030;-77
2021/08/22 08:10:29;;;;;;;4.60;4.20;;;;;;;28.66;39.99;95073.94;4970157;28;20018;-82
2021/08/22 08:12:55;;;;;;;4.97;4.20;;;;;;;28.80;38.99;95079.41;4937375;28;20400;-80
2021/08/22 08:15:20;;;;;;;4.53;4.10;;;;;;;28.58;40.97;95082.47;4953258;28;20041;-81
2021/08/22 08:17:46;;;;;;;5.40;3.80;;;;;;;29.33;39.03;95074.84;4970662;28;20492;-80
2021/08/22 08:20:12;;;;;;;6.18;3.90;;;;;;;29.54;38.81;95068.97;4938241;28;20042;-81
2021/08/22 08:22:37;;;;;;;9.73;4.30;;;;;;;29.21;40.54;95075.25;4935967;28;20050;-81
2021/08/22 08:25:03;;;;;;;5.47;4.22;;;;;;;29.19;39.38;95069.38;4921903;28;20031;-83
2021/08/22 08:27:29;;;;;;;5.55;4.30;;;;;;;28.82;40.35;95071.91;4952512;28;20030;-82
2021/08/22 08:29:54;;;;;;;4.45;4.13;;;;;;;29.25;38.54;95055.72;4971196;28;20023;-81
2021/08/22 08:32:19;;;;;;;4.15;3.75;;;;;;;29.36;38.13;95063.59;4938923;28;20443;-80
2021/08/22 08:34:45;;;;;;;4.95;4.43;;;;;;;28.49;40.19;95066.31;4989650;28;20097;-83
2021/08/22 08:37:10;;;;;;;6.60;4.05;;;;;;;29.69;39.45;95054.66;4990390;28;20547;-80
2021/08/22 08:39:36;;;;;;;6.03;4.05;;;;;;;30.08;38.99;95051.72;4955020;28;20022;-79
2021/08/22 08:42:34;;;;;;;5.47;3.90;;;;;;;29.30;38.92;95057.53;4950023;28;20035;-80
2021/08/22 08:45:00;;;;;;;13.18;3.70;;;;;;;29.00;38.24;95055.97;4958389;28;20605;-83
2021/08/22 08:47:26;;;;;;;9.98;4.25;;;;;;;29.93;38.64;95051.94;4937589;28;20043;-82
2021/08/22 08:50:21;;;;;;;7.38;3.80;;;;;;;28.22;40.58;95058.78;4936308;28;20031;-80
2021/08/22 08:53:13;;;;;;;6.82;4.28;;;;;;;29.86;39.44;95054.19;4946414;28;20101;-78
2021/08/22 08:55:45;;;;;;;3.80;3.42;;;;;;;29.94;36.01;95054.31;4960753;28;20043;-81
2021/08/22 08:58:11;;;;;;;4.40;3.60;;;;;;;29.87;36.00;95039.72;4969468;28;20045;-81
2021/08/22 09:00:38;;;;;;;4.18;3.72;;;;;;;27.80;38.96;95047.06;4951719;28;20416;-81
2021/08/22 09:03:04;;;;;;;3.72;3.42;;;;;;;29.89;37.24;95038.38;4937418;28;20038;-83
2021/08/22 09:05:33;;;;;;;4.03;3.72;;;;;;;30.45;34.60;95041.00;4934491;28;20088;-82
2021/08/22 09:08:29;;;;;;;3.35;3.05;;;;;;;30.27;34.75;95034.56;4952926;28;20059;-82
2021/08/22 09:11:28;;;;;;;3.58;3.28;;;;;;;30.20;34.68;95041.38;4968865;28;20058;-81
2021/08/22 09:14:24;;;;;;;3.70;3.45;;;;;;;29.52;34.83;95035.63;4969249;28;20058;-81
2021/08/22 09:17:26;;;;;;;4.00;3.70;;;;;;;29.75;35.70;95038.25;4969876;28;20037;-83
2021/08/22 09:20:25;;;;;;;3.70;3.40;;;;;;;30.26;34.20;95029.50;4965153;28;20041;-79
2021/08/22 09:23:28;;;;;;;4.07;3.75;;;;;;;30.54;33.69;95027.72;4964894;28;20515;-81
2021/08/22 09:26:31;;;;;;;4.07;3.78;;;;;;;30.99;34.96;95020.78;4969119;28;20046;-83
2021/08/22 09:29:11;;;;;;;4.25;3.67;;;;;;;31.15;34.10;95027.44;4957926;28;20567;-81
2021/08/22 09:31:58;;;;;;;3.40;3.20;;;;;;;30.83;33.19;95023.72;4941818;28;20031;-82
2021/08/22 09:34:49;;;;;;;4.00;3.55;;;;;;;31.03;34.64;95032.50;4990169;28;20042;-83
2021/08/22 09:37:55;;;;;;;4.15;3.70;;;;;;;30.54;35.38;95023.19;4988620;28;20026;-75
2021/08/22 09:40:36;;;;;;;3.83;3.53;;;;;;;30.68;34.01;95020.53;4988560;28;20522;-83
2021/08/22 09:43:32;;;;;;;3.90;3.63;;;;;;;30.89;33.63;95012.94;4934907;29;20543;-83
2021/08/22 09:46:33;;;;;;;4.40;4.00;;;;;;;30.68;33.65;95012.50;4933366;29;20425;-82
2021/08/22 09:49:22;;;;;;;3.67;3.47;;;;;;;29.97;34.74;95007.50;4948344;29;20078;-82
2021/08/22 09:51:47;;;;;;;;;;;;;;;29.46;34.28;95016.22;4967049;28;20496;-83
2021/08/22 09:54:44;;;;;;;4.47;4.00;;;;;;;30.23;34.71;95014.84;4948467;28;19924;-81
2021/08/22 09:57:31;;;;;;;4.50;4.00;;;;;;;30.78;33.42;95007.78;4961243;28;20045;-82
2021/08/22 10:00:23;;;;;;;5.47;3.45;;;;;;;31.57;32.34;95011.06;4950325;28;20034;-82
2021/08/22 10:03:10;;;;;;;4.10;3.67;;;;;;;31.15;31.86;95003.34;4949522;28;20054;-83
2021/08/22 10:06:16;;;;;;;4.70;4.40;;;;;;;31.54;30.76;94998.25;4966697;28;20090;-82
2021/08/22 10:08:47;;;;;;;4.53;4.10;;;;;;;30.76;31.18;94999.22;4917690;28;20531;-84
2021/08/22 10:11:16;;;;;;;4.40;4.10;;;;;;;31.35;30.43;94994.88;4949302;28;20034;-80
2021/08/22 10:13:42;;;;;;;4.10;3.80;;;;;;;30.79;31.35;94990.59;4935219;28;20188;-82
2021/08/22 10:16:09;;;;;;;4.28;3.97;;;;;;;31.24;30.77;94999.66;4950714;28;20074;-83
2021/08/22 10:18:34;;;;;;;4.47;4.07;;;;;;;30.53;29.82;94992.19;4934888;28;20035;-80
2021/08/22 10:21:07;;;;;;;4.97;4.50;;;;;;;30.33;31.59;94987.16;4934678;28;20238;-82
2021/08/22 10:23:38;;;;;;;4.55;4.13;;;;;;;29.96;30.83;94977.31;4935041;28;20515;-82
2021/08/22 10:26:04;;;;;;;4.35;3.95;;;;;;;30.42;31.32;94981.94;4966341;28;20023;-82
2021/08/22 10:28:45;;;;;;;5.80;4.22;;;;;;;30.40;30.19;94982.25;4949852;28;20468;-83
2021/08/22 10:31:11;;;;;;;4.70;4.30;;;;;;;30.01;29.28;94987.16;4951901;28;20039;-80
2021/08/22 10:34:07;;;;;;;4.68;4.13;;;;;;;29.90;29.86;94980.34;4945825;28;20405;-82
2021/08/22 10:36:34;;;;;;;5.05;4.45;;;;;;;31.40;29.77;94975.25;4963059;28;20114;-82
2021/08/22 10:39:22;;;;;;;4.38;3.97;;;;;;;31.19;30.46;94988.25;4950325;28;20034;-81
2021/08/22 10:41:54;;;;;;;4.40;4.00;;;;;;;30.89;30.46;94981.59;4947007;28;20042;-83
2021/08/22 10:44:32;;;;;;;4.78;4.10;;;;;;;31.84;29.09;94976.16;4950298;28;20097;-86
2021/08/22 10:47:08;;;;;;;4.23;3.90;;;;;;;31.29;29.73;94970.09;4966553;28;20791;-81
2021/08/22 10:49:52;;;;;;;4.05;3.75;;;;;;;30.36;29.94;94981.22;4948870;28;20023;-82
2021/08/22 10:52:26;;;;;;;4.45;4.15;;;;;;;30.12;31.44;94975.19;4949166;28;20030;-82
2021/08/22 10:55:10;;;;;;;4.60;4.20;;;;;;;29.79;32.92;94961.81;4946184;28;20121;-81
2021/08/22 10:57:56;;;;;;;5.15;4.00;;;;;;;30.14;31.54;94965.81;4969412;28;20400;-81
2021/08/22 11:00:25;;;;;;;4.07;3.67;;;;;;;29.58;32.30;94963.19;4959919;28;20047;-82
2021/08/22 11:03:00;;;;;;;7.03;4.15;;;;;;;29.48;32.72;94967.84;4956083;28;20049;-81
2021/08/22 11:05:31;;;;;;;4.30;3.95;;;;;;;29.28;32.67;94960.94;4939316;28;20026;-83
2021/08/22 11:08:10;;;;;;;4.63;4.25;;;;;;;29.19;32.55;94959.94;4951987;28;20027;-82
2021/08/22 11:10:36;;;;;;;4.57;3.83;;;;;;;29.23;32.68;94956.44;4940742;28;20038;-83
2021/08/22 11:13:02;;;;;;;4.95;4.03;;;;;;;29.50;33.48;94958.50;4972064;28;20038;-82
2021/08/22 11:15:28;;;;;;;5.03;4.60;;;;;;;30.42;31.67;94952.53;4953839;28;20740;-82
2021/08/22 11:18:00;;;;;;;5.40;4.07;;;;;;;30.50;31.03;94949.97;4972418;28;20571;-83
2021/08/22 11:20:29;;;;;;;4.93;3.90;;;;;;;29.57;31.77;94950.91;4953374;28;20488;-82
2021/08/22 11:23:05;;;;;;;4.13;3.75;;;;;;;30.82;31.14;94944.53;4972155;28;20031;-85
2021/08/22 11:25:30;;;;;;;4.95;4.43;;;;;;;31.34;29.85;94945.09;4938543;28;20247;-81
2021/08/22 11:28:12;;;;;;;5.30;3.90;;;;;;;31.60;30.15;94940.78;4922238;28;20559;-82
2021/08/22 11:30:38;;;;;;;4.18;3.92;;;;;;;31.46;30.69;94940.03;4954781;28;20034;-81
2021/08/22 11:33:04;;;;;;;4.25;3.95;;;;;;;31.47;30.03;94938.91;4969636;28;20131;-82
2021/08/22 11:35:30;;;;;;;4.57;4.22;;;;;;;31.33;30.37;94941.66;4954509;28;20461;-82
2021/08/22 11:37:59;;;;;;;4.32;3.92;;;;;;;30.80;29.53;94946.72;4953830;28;20027;-80
2021/08/22 11:40:26;;;;;;;4.43;4.03;;;;;;;31.16;31.98;94930.75;4938937;28;20530;-83
2021/08/22 11:42:56;;;;;;;5.80;3.85;;;;;;;31.71;29.93;94926.06;4938449;28;20022;-84
2021/08/22 11:45:26;;;;;;;6.60;3.80;;;;;;;32.07;30.29;94933.28;4953355;28;20504;-80
2021/08/22 11:47:51;;;;;;;3.85;3.53;;;;;;;31.56;29.53;94929.13;4955169;28;20034;-82
2021/08/22 11:50:20;;;;;;;3.50;3.30;;;;;;;31.67;28.82;94926.97;4936883;28;20026;-81
2021/08/22 11:52:47;;;;;;;;;;;;;;;31.67;29.17;94917.03;4939049;28;20034;-81
2021/08/22 11:55:13;;;;;;;4.10;3.78;;;;;;;31.40;28.78;94924.38;4952638;28;20380;-82
2021/08/22 11:57:39;;;;;;;4.22;3.75;;;;;;;30.94;29.24;94925.31;4938579;28;20026;-82
2021/08/22 12:00:12;;;;;;;7.20;4.43;;;;;;;31.04;29.38;94910.94;4969588;28;20039;-79
2021/08/22 12:02:37;;;;;;;6.20;4.00;;;;;;;31.14;29.55;94908.06;4935555;28;20786;-82
2021/08/22 12:05:19;;;;;;;4.88;3.65;;;;;;;32.18;29.01;94916.63;4937784;28;20408;-82
2021/08/22 12:07:45;;;;;;;4.22;3.42;;;;;;;32.03;29.04;94914.31;4948582;28;20039;-81
2021/08/22 12:10:24;;;;;;;4.15;3.85;;;;;;;31.94;29.27;94907.31;4952211;28;20031;-81
2021/08/22 12:12:50;;;;;;;5.20;4.43;;;;;;;31.65;30.15;94907.75;4935154;28;20520;-82
2021/08/22 12:15:16;;;;;;;6.60;4.40;;;;;;;31.54;28.39;94904.50;4951756;28;20023;-82
2021/08/22 12:17:41;;;;;;;4.07;3.72;;;;;;;30.55;29.30;94903.59;4953804;28;20109;-80
2021/08/22 12:20:22;;;;;;;4.55;4.15;;;;;;;30.81;29.77;94900.13;4920522;28;20030;-83
2021/08/22 12:23:02;;;;;;;3.92;3.63;;;;;;;31.31;29.40;94905.53;4953771;28;20026;-80
2021/08/22 12:25:27;;;;;;;5.05;4.15;;;;;;;31.15;29.53;94893.56;4969471;28;20507;-82
2021/08/22 12:27:53;;;;;;;4.20;3.95;;;;;;;31.38;30.26;94895.19;4938010;28;20023;-83
2021/08/22 12:30:18;;;;;;;5.70;3.72;;;;;;;31.92;30.25;94888.84;4952731;28;20023;-84
2021/08/22 12:32:44;;;;;;;3.63;3.33;;;;;;;32.04;29.66;94891.78;4971256;28;20033;-81
2021/08/22 12:35:10;;;;;;;4.45;4.15;;;;;;;31.59;28.80;94890.19;4953470;28;20038;-78
2021/08/22 12:37:35;;;;;;;3.90;3.60;;;;;;;31.65;29.31;94881.75;4952408;28;20015;-83
2021/08/22 12:40:05;;;;;;;3.90;3.60;;;;;;;31.20;28.27;94891.59;4921699;28;20034;-80
2021/08/22 12:42:30;;;;;;;3.92;3.33;;;;;;;30.26;29.46;94882.47;4950598;28;20484;-80
2021/08/22 12:44:57;;;;;;;3.65;3.35;;;;;;;30.72;29.97;94875.19;4936858;28;20094;-82
2021/08/22 12:47:23;;;;;;;3.78;3.47;;;;;;;31.12;30.29;94880.78;4963769;28;20019;-78
2021/08/22 12:49:48;;;;;;;6.22;3.20;;;;;;;31.23;29.35;94885.63;4951787;28;20039;-80
2021/08/22 12:52:15;;;;;;;4.00;3.60;;;;;;;31.07;30.11;94871.00;4917719;28;20043;-81
2021/08/22 12:54:41;;;;;;;3.85;3.17;;;;;;;31.34;29.37;94875.47;4950481;28;20436;-82
2021/08/22 12:57:07;;;;;;;3.60;3.40;;;;;;;31.10;29.16;94872.25;4952212;28;20062;-81
2021/08/22 12:59:32;;;;;;;3.60;3.30;;;;;;;31.50;28.92;94871.34;4948236;28;20026;-79
2021/08/22 13:01:58;;;;;;;4.03;3.63;;;;;;;31.58;29.27;94867.16;4944107;29;20051;-81
2021/08/22 13:04:24;;;;;;;3.97;3.67;;;;;;;31.23;29.10;94868.75;4927837;29;20031;-82
2021/08/22 13:06:51;;;;;;;3.88;3.08;;;;;;;30.95;28.69;94865.38;4929900;29;20123;-81
2021/08/22 13:09:16;;;;;;;3.83;3.40;;;;;;;30.58;30.20;94861.00;4932200;29;20031;-81
2021/08/22 13:11:42;;;;;;;3.60;3.30;;;;;;;30.12;30.25;94866.41;4928679;29;20494;-80
2021/08/22 13:14:07;;;;;;;4.03;3.72;;;;;;;29.93;30.66;94859.53;4943953;29;20582;-81
2021/08/22 13:16:34;;;;;;;3.97;3.58;;;;;;;30.06;30.94;94867.56;4929828;29;20024;-80
2021/08/22 13:18:59;;;;;;;5.72;3.63;;;;;;;30.07;29.44;94863.03;4931868;29;21096;-77
2021/08/22 13:21:25;;;;;;;3.90;3.60;;;;;;;30.55;29.52;94866.97;4941442;29;20488;-83
2021/08/22 13:23:52;;;;;;;4.10;3.67;;;;;;;31.10;29.23;94866.91;4948409;29;20147;-80
2021/08/22 13:26:18;;;;;;;3.90;3.60;;;;;;;30.37;29.96;94856.34;4928810;29;20033;-81
2021/08/22 13:28:43;;;;;;;3.60;3.13;;;;;;;30.90;29.50;94860.06;4930457;29;20106;-80
2021/08/22 13:31:09;;;;;;;3.90;3.60;;;;;;;31.42;28.89;94855.19;4948176;29;20039;-81
2021/08/22 13:33:34;;;;;;;3.47;3.28;;;;;;;31.32;29.22;94853.56;4944677;28;20370;-80
2021/08/22 13:36:00;;;;;;;3.50;3.28;;;;;;;31.41;28.66;94856.28;4949371;28;20081;-81
2021/08/22 13:38:25;;;;;;;3.45;3.25;;;;;;;31.65;28.44;94854.94;4946088;29;20031;-80
2021/08/22 13:40:51;;;;;;;3.63;3.38;;;;;;;31.69;28.69;94858.56;4931502;29;20287;-82
2021/08/22 13:43:17;;;;;;;3.80;3.50;;;;;;;31.25;29.33;94848.63;4940772;29;20028;-81
2021/08/22 13:45:42;;;;;;;3.10;2.90;;;;;;;30.84;30.28;94848.69;4928897;29;20031;-81
2021/08/22 13:48:08;;;;;;;3.53;2.67;;;;;;;31.22;29.75;94845.75;4926190;29;20067;-80
2021/08/22 13:50:33;;;;;;;3.58;3.33;;;;;;;31.44;29.55;94845.75;4924152;29;20086;-81
2021/08/22 13:53:00;;;;;;;3.97;3.58;;;;;;;30.86;29.67;94850.28;4948989;29;20035;-82
2021/08/22 13:55:25;;;;;;;3.70;3.40;;;;;;;30.84;29.68;94851.38;4931371;29;20382;-81
2021/08/22 13:57:51;;;;;;;4.60;3.50;;;;;;;30.76;29.69;94846.72;4932598;29;20094;-83
2021/08/22 14:00:16;;;;;;;3.65;3.35;;;;;;;30.08;30.52;94849.38;4944756;28;20027;-81
2021/08/22 14:02:42;;;;;;;3.75;3.42;;;;;;;29.87;31.70;94848.16;4943332;28;20039;-76
2021/08/22 14:05:08;;;;;;;3.67;3.38;;;;;;;29.69;32.19;94849.75;4931723;29;20047;-79
2021/08/22 14:07:34;;;;;;;3.80;3.50;;;;;;;29.23;32.38;94848.84;4948370;29;20477;-81
2021/08/22 14:09:59;;;;;;;4.72;3.30;;;;;;;29.19;32.10;94850.50;4947759;29;20038;-81
2021/08/22 14:12:24;;;;;;;4.55;3.33;;;;;;;29.32;32.20;94844.47;4932094;29;20038;-80
2021/08/22 14:14:50;;;;;;;3.40;3.20;;;;;;;29.20;32.45;94846.78;4948798;29;20468;-80
2021/08/22 14:17:15;;;;;;;4.65;3.42;;;;;;;29.06;32.45;94841.34;4928470;29;20030;-80
2021/08/22 14:19:41;;;;;;;3.65;3.45;;;;;;;29.19;32.71;94842.50;4930146;29;20485;-80
2021/08/22 14:22:07;;;;;;;4.88;3.83;;;;;;;29.22;32.77;94845.38;4943124;29;20066;-80
2021/08/22 14:24:32;;;;;;;5.53;4.68;;;;;;;29.11;33.94;94843.19;4931699;29;20031;-80
2021/08/22 14:26:58;;;;;;;3.60;3.30;;;;;;;28.99;32.78;94840.16;4944272;29;20031;-80
2021/08/22 14:29:23;;;;;;;3.97;3.65;;;;;;;28.95;33.59;94841.81;4948251;29;20022;-80
2021/08/22 14:31:49;;;;;;;4.63;3.55;;;;;;;28.77;33.00;94838.81;4950672;28;20031;-81
2021/08/22 14:34:17;;;;;;;5.80;3.33;;;;;;;28.51;33.41;94845.53;4928155;29;20019;-81
2021/08/22 14:36:43;;;;;;;3.35;3.15;;;;;;;28.96;32.33;94843.41;4933641;29;20055;-81
2021/08/22 14:39:08;;;;;;;6.95;3.95;;;;;;;29.11;32.70;94837.84;4938669;29;20106;-81
2021/08/22 14:41:34;;;;;;;3.85;3.50;;;;;;;28.68;33.72;94848.56;4953022;28;20625;-82
2021/08/22 14:43:59;;;;;;;5.57;4.10;;;;;;;28.42;33.12;94841.91;4950058;29;20035;-80
2021/08/22 14:46:25;;;;;;;3.58;3.28;;;;;;;28.64;34.00;94841.41;4950525;29;20031;-81
2021/08/22 14:48:51;;;;;;;4.53;3.80;;;;;;;28.76;34.47;94842.59;4948106;29;20143;-80
2021/08/22 14:51:16;;;;;;;3.45;3.17;;;;;;;28.42;33.82;94835.78;4947761;28;20016;-81
2021/08/22 14:53:42;;;;;;;3.65;3.35;;;;;;;28.62;33.22;94840.88;4932493;29;20027;-80
2021/08/22 14:56:08;;;;;;;4.57;3.70;;;;;;;28.84;33.55;94840.34;4949449;29;20480;-82
2021/08/22 14:58:33;;;;;;;3.85;3.60;;;;;;;28.92;35.08;94837.03;4951310;28;20030;-80
2021/08/22 15:00:58;;;;;;;3.65;3.45;;;;;;;28.77;34.55;94830.81;4949179;29;20552;-80
2021/08/22 15:03:24;;;;;;;4.63;4.22;;;;;;;29.38;34.24;94829.97;4917549;29;20056;-80
2021/08/22 15:05:50;;;;;;;3.90;3.38;;;;;;;29.34;33.58;94823.63;4949019;29;20062;-81
2021/08/22 15:08:16;;;;;;;3.42;3.13;;;;;;;29.58;32.46;94821.63;4934665;29;20110;-79
2021/08/22 15:10:42;;;;;;;4.05;3.75;;;;;;;29.45;31.87;94826.91;4947238;29;20019;-80
2021/08/22 15:13:08;;;;;;;3.55;3.25;;;;;;;29.74;32.63;94822.97;4932437;29;20473;-82
2021/08/22 15:15:33;;;;;;;4.13;3.80;;;;;;;29.94;31.71;94835.19;4919601;29;20031;-82
2021/08/22 15:17:59;;;;;;;6.30;3.60;;;;;;;29.59;32.01;94825.91;4931156;29;20094;-82
2021/08/22 15:20:24;;;;;;;5.40;3.70;;;;;;;29.73;31.77;94832.03;4928246;29;20028;-82
2021/08/22 15:22:49;;;;;;;4.88;3.70;;;;;;;30.06;32.02;94826.69;4927212;29;20115;-82
2021/08/22 15:25:15;;;;;;;3.55;3.15;;;;;;;29.48;32.27;94823.66;4930838;29;20034;-82
2021/08/22 15:27:40;;;;;;;4.25;3.38;;;;;;;29.61;32.61;94826.38;4929274;29;20059;-81
2021/08/22 15:30:06;;;;;;;6.95;4.03;;;;;;;29.87;32.12;94809.94;4943479;29;20094;-81
2021/08/22 15:32:32;;;;;;;3.83;3.53;;;;;;;29.47;31.88;94820.22;4948223;29;20024;-82
2021/08/22 15:34:57;;;;;;;3.90;3.60;;;;;;;29.54;31.60;94825.19;4934068;29;20031;-82
2021/08/22 15:37:23;;;;;;;4.00;3.13;;;;;;;29.12;32.02;94826.09;4936198;29;20547;-82
2021/08/22 15:39:51;;;;;;;3.50;3.20;;;;;;;29.18;31.51;94824.94;4917846;29;20417;-82
2021/08/22 15:42:17;;;;;;;3.50;3.30;;;;;;;29.29;32.07;94829.03;4950856;28;20028;-82
2021/08/22 15:44:42;;;;;;;3.97;3.63;;;;;;;29.29;32.51;94821.03;4950967;28;20494;-82
2021/08/22 15:47:08;;;;;;;4.90;4.07;;;;;;;29.07;33.39;94828.81;4950305;29;20023;-82
2021/08/22 15:49:34;;;;;;;5.82;3.60;;;;;;;28.83;33.06;94825.44;4950969;29;20034;-82
2021/08/22 15:52:00;;;;;;;4.05;3.67;;;;;;;28.84;33.20;94819.81;4950637;28;20047;-83
2021/08/22 15:54:25;;;;;;;3.70;3.35;;;;;;;28.78;33.14;94824.41;4970495;28;20109;-83
2021/08/22 15:56:53;;;;;;;4.22;3.60;;;;;;;28.74;33.45;94827.94;4969057;28;20031;-82
2021/08/22 15:59:18;;;;;;;5.70;3.88;;;;;;;28.66;33.48;94824.06;4970791;28;20114;-82
2021/08/22 16:01:44;;;;;;;4.45;3.50;;;;;;;28.50;33.60;94819.97;4952222;28;20050;-81
2021/08/22 16:04:09;;;;;;;4.20;3.80;;;;;;;28.36;34.23;94829.72;4948162;29;20047;-79
2021/08/22 16:06:35;;;;;;;4.05;3.65;;;;;;;28.26;34.42;94819.19;4951405;28;20027;-81
2021/08/22 16:09:00;;;;;;;3.83;3.53;;;;;;;28.18;34.83;94828.59;4933377;29;20028;-82
2021/08/22 16:11:26;;;;;;;3.97;3.65;;;;;;;28.01;35.29;94817.56;4950401;29;20090;-80
2021/08/22 16:13:51;;;;;;;4.60;4.20;;;;;;;27.97;35.69;94815.72;4931217;29;20043;-80
2021/08/22 16:16:17;;;;;;;5.30;3.72;;;;;;;27.89;36.44;94819.03;4950482;29;20031;-81
2021/08/22 16:18:42;;;;;;;3.90;3.60;;;;;;;27.69;36.24;94826.13;4949047;29;20065;-80
2021/08/22 16:21:08;;;;;;;4.22;3.83;;;;;;;27.65;36.29;94830.44;4915639;29;20075;-80
2021/08/22 16:23:34;;;;;;;4.53;4.03;;;;;;;27.60;37.59;94822.50;4930202;29;20037;-79
2021/08/22 16:25:59;;;;;;;4.47;4.07;;;;;;;27.42;38.48;94827.69;4943054;29;20711;-80
2021/08/22 16:28:25;;;;;;;3.80;3.50;;;;;;;27.27;39.65;94831.25;4950560;29;20026;-80
2021/08/22 16:30:50;;;;;;;4.78;4.32;;;;;;;27.09;40.68;94835.38;4949589;29;20030;-77
2021/08/22 16:33:16;;;;;;;4.43;3.95;;;;;;;26.97;38.91;94832.25;4949725;29;20050;-80
2021/08/22 16:35:42;;;;;;;4.25;3.95;;;;;;;26.94;39.84;94840.00;4948512;29;20066;-80
2021/08/22 16:38:07;;;;;;;3.85;3.55;;;;;;;26.72;39.44;94846.44;4929634;29;20517;-81
2021/08/22 16:40:36;;;;;;;4.57;4.28;;;;;;;26.68;41.10;94845.41;4895887;29;20063;-82
2021/08/22 16:43:01;;;;;;;3.97;3.67;;;;;;;26.60;39.96;94848.66;4913446;29;20410;-81